sensor_id;sensor_type;location;lat;lon;timestamp;P1;durP1;ratioP1;P2;durP2;ratioP2
57331;SDS011;43164;50.908;18.092;2023-07-20T00:01:40;6.10;;;2.30;;
57331;SDS011;43164;50.908;18.092;2023-07-20T00:04:11;6.70;;;1.80;;
57331;SDS011;43164;50.908;18.092;2023-07-20T00:06:40;8.00;;;2.20;;
57331;SDS011;43164;50.908;18.092;2023-07-20T00:09:08;6.40;;;1.90;;
57331;SDS011;43164;50.908;18.092;2023-07-20T00:11:36;5.50;;;1.80;;
57331;SDS011;43164;50.908;18.092;2023-07-20T00:14:05;5.20;;;1.70;;
57331;SDS011;43164;50.908;18.092;2023-07-20T00:16:33;8.20;;;1.60;;
57331;SDS011;43164;50.908;18.092;2023-07-20T00:19:02;5.90;;;1.60;;
57331;SDS011;43164;50.908;18.092;2023-07-20T00:21:31;8.00;;;1.90;;
57331;SDS011;43164;50.908;18.092;2023-07-20T00:23:59;4.90;;;1.30;;
57331;SDS011;43164;50.908;18.092;2023-07-20T00:26:28;6.90;;;1.50;;
57331;SDS011;43164;50.908;18.092;2023-07-20T00:28:56;4.50;;;1.40;;
57331;SDS011;43164;50.908;18.092;2023-07-20T00:31:24;5.80;;;2.10;;
57331;SDS011;43164;50.908;18.092;2023-07-20T00:33:52;7.10;;;1.50;;
57331;SDS011;43164;50.908;18.092;2023-07-20T00:36:19;5.30;;;1.60;;
57331;SDS011;43164;50.908;18.092;2023-07-20T00:38:47;5.70;;;1.50;;
57331;SDS011;43164;50.908;18.092;2023-07-20T00:41:16;4.90;;;1.30;;
57331;SDS011;43164;50.908;18.092;2023-07-20T00:43:45;6.20;;;1.50;;
57331;SDS011;43164;50.908;18.092;2023-07-20T00:46:13;3.70;;;1.10;;
57331;SDS011;43164;50.908;18.092;2023-07-20T00:48:40;5.90;;;1.40;;
57331;SDS011;43164;50.908;18.092;2023-07-20T00:51:09;4.00;;;1.00;;
57331;SDS011;43164;50.908;18.092;2023-07-20T00:53:37;5.20;;;1.50;;
57331;SDS011;43164;50.908;18.092;2023-07-20T00:56:13;5.50;;;1.50;;
57331;SDS011;43164;50.908;18.092;2023-07-20T00:58:41;6.00;;;1.90;;
57331;SDS011;43164;50.908;18.092;2023-07-20T01:01:09;5.80;;;1.40;;
57331;SDS011;43164;50.908;18.092;2023-07-20T01:03:37;6.20;;;1.60;;
57331;SDS011;43164;50.908;18.092;2023-07-20T01:06:09;4.50;;;1.40;;
57331;SDS011;43164;50.908;18.092;2023-07-20T01:08:59;4.50;;;1.30;;
57331;SDS011;43164;50.908;18.092;2023-07-20T01:11:43;5.20;;;1.50;;
57331;SDS011;43164;50.908;18.092;2023-07-20T01:14:41;3.90;;;1.40;;
57331;SDS011;43164;50.908;18.092;2023-07-20T01:17:09;6.30;;;1.40;;
57331;SDS011;43164;50.908;18.092;2023-07-20T01:19:37;6.90;;;1.80;;
57331;SDS011;43164;50.908;18.092;2023-07-20T01:28:01;5.10;;;1.40;;
57331;SDS011;43164;50.908;18.092;2023-07-20T01:33:56;5.10;;;1.30;;
57331;SDS011;43164;50.908;18.092;2023-07-20T01:36:24;4.90;;;1.30;;
57331;SDS011;43164;50.908;18.092;2023-07-20T01:38:54;4.40;;;1.40;;
57331;SDS011;43164;50.908;18.092;2023-07-20T01:41:22;5.20;;;1.40;;
57331;SDS011;43164;50.908;18.092;2023-07-20T01:43:51;6.10;;;1.30;;
57331;SDS011;43164;50.908;18.092;2023-07-20T01:46:18;4.40;;;1.20;;
57331;SDS011;43164;50.908;18.092;2023-07-20T01:48:47;4.80;;;1.50;;
57331;SDS011;43164;50.908;18.092;2023-07-20T01:51:15;4.90;;;1.20;;
57331;SDS011;43164;50.908;18.092;2023-07-20T01:53:45;5.80;;;1.50;;
57331;SDS011;43164;50.908;18.092;2023-07-20T01:56:13;8.30;;;1.40;;
57331;SDS011;43164;50.908;18.092;2023-07-20T01:58:42;5.50;;;1.80;;
57331;SDS011;43164;50.908;18.092;2023-07-20T02:01:10;4.90;;;1.60;;
57331;SDS011;43164;50.908;18.092;2023-07-20T02:03:39;5.70;;;1.30;;
57331;SDS011;43164;50.908;18.092;2023-07-20T02:06:07;5.70;;;1.20;;
57331;SDS011;43164;50.908;18.092;2023-07-20T02:08:37;5.10;;;1.50;;
57331;SDS011;43164;50.908;18.092;2023-07-20T02:11:12;5.90;;;1.70;;
57331;SDS011;43164;50.908;18.092;2023-07-20T02:13:40;7.80;;;1.90;;
57331;SDS011;43164;50.908;18.092;2023-07-20T02:16:14;5.50;;;1.80;;
57331;SDS011;43164;50.908;18.092;2023-07-20T02:18:43;5.00;;;1.90;;
57331;SDS011;43164;50.908;18.092;2023-07-20T02:21:17;7.20;;;1.90;;
57331;SDS011;43164;50.908;18.092;2023-07-20T02:23:46;7.70;;;1.60;;
57331;SDS011;43164;50.908;18.092;2023-07-20T02:26:19;5.00;;;1.60;;
57331;SDS011;43164;50.908;18.092;2023-07-20T02:28:48;6.70;;;1.90;;
57331;SDS011;43164;50.908;18.092;2023-07-20T02:31:24;5.30;;;1.50;;
57331;SDS011;43164;50.908;18.092;2023-07-20T02:33:54;5.90;;;1.90;;
57331;SDS011;43164;50.908;18.092;2023-07-20T02:36:28;5.90;;;1.70;;
57331;SDS011;43164;50.908;18.092;2023-07-20T02:38:56;6.10;;;2.00;;
57331;SDS011;43164;50.908;18.092;2023-07-20T02:41:43;5.80;;;2.40;;
57331;SDS011;43164;50.908;18.092;2023-07-20T02:44:11;6.10;;;2.00;;
57331;SDS011;43164;50.908;18.092;2023-07-20T02:46:47;4.50;;;1.70;;
57331;SDS011;43164;50.908;18.092;2023-07-20T02:49:17;5.70;;;2.20;;
57331;SDS011;43164;50.908;18.092;2023-07-20T02:51:52;5.60;;;1.90;;
57331;SDS011;43164;50.908;18.092;2023-07-20T02:54:26;6.80;;;1.70;;
57331;SDS011;43164;50.908;18.092;2023-07-20T02:57:04;5.80;;;2.00;;
57331;SDS011;43164;50.908;18.092;2023-07-20T02:59:35;5.80;;;1.90;;
57331;SDS011;43164;50.908;18.092;2023-07-20T03:02:09;5.10;;;1.50;;
57331;SDS011;43164;50.908;18.092;2023-07-20T03:04:37;6.70;;;1.90;;
57331;SDS011;43164;50.908;18.092;2023-07-20T03:07:06;5.90;;;2.00;;
57331;SDS011;43164;50.908;18.092;2023-07-20T03:09:36;4.60;;;1.90;;
57331;SDS011;43164;50.908;18.092;2023-07-20T03:12:10;7.50;;;3.30;;
57331;SDS011;43164;50.908;18.092;2023-07-20T03:14:39;9.20;;;2.50;;
57331;SDS011;43164;50.908;18.092;2023-07-20T03:17:08;7.40;;;2.10;;
57331;SDS011;43164;50.908;18.092;2023-07-20T03:19:38;5.00;;;2.10;;
57331;SDS011;43164;50.908;18.092;2023-07-20T03:22:07;8.20;;;2.30;;
57331;SDS011;43164;50.908;18.092;2023-07-20T03:24:34;6.00;;;2.00;;
57331;SDS011;43164;50.908;18.092;2023-07-20T03:27:02;6.20;;;2.10;;
57331;SDS011;43164;50.908;18.092;2023-07-20T03:29:32;8.90;;;2.30;;
57331;SDS011;43164;50.908;18.092;2023-07-20T03:32:02;4.60;;;1.90;;
57331;SDS011;43164;50.908;18.092;2023-07-20T03:34:38;5.70;;;2.00;;
57331;SDS011;43164;50.908;18.092;2023-07-20T03:37:09;5.30;;;1.90;;
57331;SDS011;43164;50.908;18.092;2023-07-20T03:39:38;5.10;;;2.00;;
57331;SDS011;43164;50.908;18.092;2023-07-20T03:42:06;6.40;;;2.00;;
57331;SDS011;43164;50.908;18.092;2023-07-20T03:44:35;6.80;;;2.00;;
57331;SDS011;43164;50.908;18.092;2023-07-20T03:47:04;5.10;;;1.60;;
57331;SDS011;43164;50.908;18.092;2023-07-20T03:49:32;5.00;;;1.60;;
57331;SDS011;43164;50.908;18.092;2023-07-20T03:52:01;4.20;;;1.60;;
57331;SDS011;43164;50.908;18.092;2023-07-20T03:54:36;5.20;;;1.50;;
57331;SDS011;43164;50.908;18.092;2023-07-20T03:57:05;3.50;;;1.00;;
57331;SDS011;43164;50.908;18.092;2023-07-20T03:59:33;2.80;;;1.10;;
57331;SDS011;43164;50.908;18.092;2023-07-20T04:02:02;4.30;;;1.30;;
57331;SDS011;43164;50.908;18.092;2023-07-20T04:04:37;3.80;;;1.30;;
57331;SDS011;43164;50.908;18.092;2023-07-20T04:07:06;4.70;;;1.30;;
57331;SDS011;43164;50.908;18.092;2023-07-20T04:09:34;5.60;;;1.50;;
57331;SDS011;43164;50.908;18.092;2023-07-20T04:12:02;3.80;;;1.50;;
57331;SDS011;43164;50.908;18.092;2023-07-20T04:14:31;4.70;;;1.60;;
57331;SDS011;43164;50.908;18.092;2023-07-20T04:17:00;3.70;;;1.60;;
57331;SDS011;43164;50.908;18.092;2023-07-20T04:19:35;4.60;;;1.40;;
57331;SDS011;43164;50.908;18.092;2023-07-20T04:22:04;3.90;;;1.30;;
57331;SDS011;43164;50.908;18.092;2023-07-20T04:24:38;3.80;;;1.40;;
57331;SDS011;43164;50.908;18.092;2023-07-20T04:27:07;4.50;;;1.40;;
57331;SDS011;43164;50.908;18.092;2023-07-20T04:29:50;2.80;;;1.20;;
57331;SDS011;43164;50.908;18.092;2023-07-20T04:32:25;3.30;;;1.20;;
57331;SDS011;43164;50.908;18.092;2023-07-20T04:35:05;4.20;;;1.30;;
57331;SDS011;43164;50.908;18.092;2023-07-20T04:37:35;3.40;;;1.10;;
57331;SDS011;43164;50.908;18.092;2023-07-20T04:40:15;4.30;;;0.90;;
57331;SDS011;43164;50.908;18.092;2023-07-20T04:42:45;3.10;;;1.00;;
57331;SDS011;43164;50.908;18.092;2023-07-20T04:45:19;2.80;;;1.00;;
57331;SDS011;43164;50.908;18.092;2023-07-20T04:47:49;3.30;;;1.20;;
57331;SDS011;43164;50.908;18.092;2023-07-20T04:50:23;2.40;;;0.80;;
57331;SDS011;43164;50.908;18.092;2023-07-20T04:52:51;3.50;;;1.00;;
57331;SDS011;43164;50.908;18.092;2023-07-20T04:55:22;3.80;;;1.10;;
57331;SDS011;43164;50.908;18.092;2023-07-20T04:57:52;4.90;;;1.20;;
57331;SDS011;43164;50.908;18.092;2023-07-20T05:00:21;2.90;;;1.10;;
57331;SDS011;43164;50.908;18.092;2023-07-20T05:02:50;4.70;;;1.20;;
57331;SDS011;43164;50.908;18.092;2023-07-20T05:05:20;3.40;;;1.10;;
57331;SDS011;43164;50.908;18.092;2023-07-20T05:07:50;4.40;;;1.20;;
57331;SDS011;43164;50.908;18.092;2023-07-20T05:10:21;5.20;;;1.40;;
57331;SDS011;43164;50.908;18.092;2023-07-20T05:12:50;3.10;;;1.30;;
57331;SDS011;43164;50.908;18.092;2023-07-20T05:15:23;4.30;;;1.40;;
57331;SDS011;43164;50.908;18.092;2023-07-20T05:17:58;4.40;;;1.40;;
57331;SDS011;43164;50.908;18.092;2023-07-20T05:20:28;4.90;;;1.50;;
57331;SDS011;43164;50.908;18.092;2023-07-20T05:22:59;5.40;;;1.40;;
57331;SDS011;43164;50.908;18.092;2023-07-20T05:25:30;5.60;;;1.50;;
57331;SDS011;43164;50.908;18.092;2023-07-20T05:28:04;3.40;;;1.20;;
57331;SDS011;43164;50.908;18.092;2023-07-20T05:30:34;4.20;;;1.20;;
57331;SDS011;43164;50.908;18.092;2023-07-20T05:33:03;4.00;;;1.20;;
57331;SDS011;43164;50.908;18.092;2023-07-20T05:35:31;3.10;;;1.20;;
57331;SDS011;43164;50.908;18.092;2023-07-20T05:38:00;4.20;;;1.10;;
57331;SDS011;43164;50.908;18.092;2023-07-20T05:40:29;4.50;;;1.10;;
57331;SDS011;43164;50.908;18.092;2023-07-20T05:43:03;3.60;;;1.10;;
57331;SDS011;43164;50.908;18.092;2023-07-20T05:45:41;3.20;;;1.20;;
57331;SDS011;43164;50.908;18.092;2023-07-20T05:48:16;5.40;;;1.20;;
57331;SDS011;43164;50.908;18.092;2023-07-20T05:50:44;3.50;;;1.20;;
57331;SDS011;43164;50.908;18.092;2023-07-20T05:53:13;5.60;;;1.60;;
57331;SDS011;43164;50.908;18.092;2023-07-20T05:55:42;3.10;;;1.20;;
57331;SDS011;43164;50.908;18.092;2023-07-20T05:58:10;4.00;;;1.20;;
57331;SDS011;43164;50.908;18.092;2023-07-20T06:00:38;5.30;;;1.30;;
57331;SDS011;43164;50.908;18.092;2023-07-20T06:03:07;5.50;;;1.30;;
57331;SDS011;43164;50.908;18.092;2023-07-20T06:05:39;3.80;;;1.30;;
57331;SDS011;43164;50.908;18.092;2023-07-20T06:10:36;4.20;;;1.50;;
57331;SDS011;43164;50.908;18.092;2023-07-20T06:13:04;3.60;;;1.40;;
57331;SDS011;43164;50.908;18.092;2023-07-20T06:15:33;4.40;;;1.60;;
57331;SDS011;43164;50.908;18.092;2023-07-20T06:18:14;4.60;;;1.30;;
57331;SDS011;43164;50.908;18.092;2023-07-20T06:20:48;3.20;;;1.40;;
57331;SDS011;43164;50.908;18.092;2023-07-20T06:23:21;6.70;;;1.10;;
57331;SDS011;43164;50.908;18.092;2023-07-20T06:25:53;4.70;;;1.40;;
57331;SDS011;43164;50.908;18.092;2023-07-20T06:28:22;4.20;;;1.40;;
57331;SDS011;43164;50.908;18.092;2023-07-20T06:30:58;4.50;;;1.40;;
57331;SDS011;43164;50.908;18.092;2023-07-20T06:33:34;3.60;;;1.20;;
57331;SDS011;43164;50.908;18.092;2023-07-20T06:36:17;6.00;;;1.70;;
57331;SDS011;43164;50.908;18.092;2023-07-20T06:38:57;4.90;;;1.40;;
57331;SDS011;43164;50.908;18.092;2023-07-20T06:41:30;4.10;;;1.50;;
57331;SDS011;43164;50.908;18.092;2023-07-20T06:43:59;4.70;;;1.60;;
57331;SDS011;43164;50.908;18.092;2023-07-20T06:46:36;5.40;;;1.70;;
57331;SDS011;43164;50.908;18.092;2023-07-20T06:49:06;5.60;;;1.80;;
57331;SDS011;43164;50.908;18.092;2023-07-20T06:51:35;5.00;;;1.50;;
57331;SDS011;43164;50.908;18.092;2023-07-20T06:54:04;5.30;;;1.40;;
57331;SDS011;43164;50.908;18.092;2023-07-20T06:56:33;7.00;;;1.60;;
57331;SDS011;43164;50.908;18.092;2023-07-20T06:59:01;4.10;;;1.60;;
57331;SDS011;43164;50.908;18.092;2023-07-20T07:01:30;4.60;;;1.50;;
57331;SDS011;43164;50.908;18.092;2023-07-20T07:03:59;5.00;;;1.40;;
57331;SDS011;43164;50.908;18.092;2023-07-20T07:06:35;6.00;;;1.60;;
57331;SDS011;43164;50.908;18.092;2023-07-20T07:09:04;4.80;;;1.40;;
57331;SDS011;43164;50.908;18.092;2023-07-20T07:11:42;4.40;;;1.50;;
57331;SDS011;43164;50.908;18.092;2023-07-20T07:14:14;4.20;;;1.10;;
57331;SDS011;43164;50.908;18.092;2023-07-20T07:16:44;7.50;;;1.40;;
57331;SDS011;43164;50.908;18.092;2023-07-20T07:19:12;6.00;;;1.40;;
57331;SDS011;43164;50.908;18.092;2023-07-20T07:21:41;4.10;;;1.20;;
57331;SDS011;43164;50.908;18.092;2023-07-20T07:24:09;4.80;;;1.40;;
57331;SDS011;43164;50.908;18.092;2023-07-20T07:26:38;4.10;;;1.20;;
57331;SDS011;43164;50.908;18.092;2023-07-20T07:29:11;4.80;;;1.60;;
57331;SDS011;43164;50.908;18.092;2023-07-20T07:31:41;4.50;;;1.30;;
57331;SDS011;43164;50.908;18.092;2023-07-20T07:34:17;4.60;;;1.40;;
57331;SDS011;43164;50.908;18.092;2023-07-20T07:36:45;4.20;;;1.10;;
57331;SDS011;43164;50.908;18.092;2023-07-20T07:39:34;3.90;;;1.30;;
57331;SDS011;43164;50.908;18.092;2023-07-20T07:42:10;4.40;;;1.40;;
57331;SDS011;43164;50.908;18.092;2023-07-20T07:44:46;3.80;;;1.30;;
57331;SDS011;43164;50.908;18.092;2023-07-20T07:47:18;4.00;;;1.20;;
57331;SDS011;43164;50.908;18.092;2023-07-20T07:49:55;3.70;;;1.10;;
57331;SDS011;43164;50.908;18.092;2023-07-20T07:52:27;4.60;;;1.50;;
57331;SDS011;43164;50.908;18.092;2023-07-20T07:55:00;3.90;;;1.10;;
57331;SDS011;43164;50.908;18.092;2023-07-20T07:57:28;3.50;;;1.30;;
57331;SDS011;43164;50.908;18.092;2023-07-20T07:59:57;4.30;;;1.60;;
57331;SDS011;43164;50.908;18.092;2023-07-20T08:02:25;6.00;;;1.40;;
57331;SDS011;43164;50.908;18.092;2023-07-20T08:05:02;4.90;;;1.40;;
57331;SDS011;43164;50.908;18.092;2023-07-20T08:07:37;3.70;;;1.10;;
57331;SDS011;43164;50.908;18.092;2023-07-20T08:10:18;3.00;;;1.00;;
57331;SDS011;43164;50.908;18.092;2023-07-20T08:12:50;4.20;;;1.10;;
57331;SDS011;43164;50.908;18.092;2023-07-20T08:15:23;4.80;;;1.50;;
57331;SDS011;43164;50.908;18.092;2023-07-20T08:17:55;4.80;;;1.40;;
57331;SDS011;43164;50.908;18.092;2023-07-20T08:20:47;5.20;;;1.00;;
57331;SDS011;43164;50.908;18.092;2023-07-20T08:23:22;5.30;;;0.90;;
57331;SDS011;43164;50.908;18.092;2023-07-20T08:25:51;3.70;;;0.90;;
57331;SDS011;43164;50.908;18.092;2023-07-20T08:28:20;3.20;;;1.00;;
57331;SDS011;43164;50.908;18.092;2023-07-20T08:30:49;4.20;;;0.90;;
57331;SDS011;43164;50.908;18.092;2023-07-20T08:33:17;3.80;;;1.00;;
57331;SDS011;43164;50.908;18.092;2023-07-20T08:35:52;3.60;;;1.10;;
57331;SDS011;43164;50.908;18.092;2023-07-20T08:38:20;3.50;;;1.00;;
57331;SDS011;43164;50.908;18.092;2023-07-20T08:40:49;3.90;;;1.00;;
57331;SDS011;43164;50.908;18.092;2023-07-20T08:43:28;2.60;;;0.80;;
57331;SDS011;43164;50.908;18.092;2023-07-20T08:46:03;3.50;;;0.80;;
57331;SDS011;43164;50.908;18.092;2023-07-20T08:48:32;3.50;;;1.00;;
57331;SDS011;43164;50.908;18.092;2023-07-20T08:51:02;2.60;;;0.80;;
57331;SDS011;43164;50.908;18.092;2023-07-20T08:53:34;3.60;;;0.90;;
57331;SDS011;43164;50.908;18.092;2023-07-20T08:56:07;3.40;;;0.80;;
57331;SDS011;43164;50.908;18.092;2023-07-20T08:58:46;3.00;;;0.70;;
57331;SDS011;43164;50.908;18.092;2023-07-20T09:01:17;2.30;;;0.70;;
57331;SDS011;43164;50.908;18.092;2023-07-20T09:03:53;2.60;;;0.80;;
57331;SDS011;43164;50.908;18.092;2023-07-20T09:06:23;2.40;;;0.70;;
57331;SDS011;43164;50.908;18.092;2023-07-20T09:08:57;2.90;;;0.70;;
57331;SDS011;43164;50.908;18.092;2023-07-20T09:11:29;2.50;;;0.70;;
57331;SDS011;43164;50.908;18.092;2023-07-20T09:14:13;3.60;;;0.90;;
57331;SDS011;43164;50.908;18.092;2023-07-20T09:16:56;4.20;;;0.80;;
57331;SDS011;43164;50.908;18.092;2023-07-20T09:19:36;2.90;;;0.90;;
57331;SDS011;43164;50.908;18.092;2023-07-20T09:22:06;2.20;;;0.80;;
57331;SDS011;43164;50.908;18.092;2023-07-20T09:24:44;3.70;;;0.90;;
57331;SDS011;43164;50.908;18.092;2023-07-20T09:27:16;3.20;;;1.00;;
57331;SDS011;43164;50.908;18.092;2023-07-20T09:29:53;3.40;;;0.90;;
57331;SDS011;43164;50.908;18.092;2023-07-20T09:32:23;3.20;;;1.00;;
57331;SDS011;43164;50.908;18.092;2023-07-20T09:34:58;4.10;;;0.80;;
57331;SDS011;43164;50.908;18.092;2023-07-20T09:37:26;4.80;;;0.90;;
57331;SDS011;43164;50.908;18.092;2023-07-20T09:39:55;2.50;;;0.90;;
57331;SDS011;43164;50.908;18.092;2023-07-20T09:42:22;4.00;;;0.80;;
57331;SDS011;43164;50.908;18.092;2023-07-20T09:44:54;2.70;;;1.00;;
57331;SDS011;43164;50.908;18.092;2023-07-20T09:47:25;2.00;;;0.90;;
57331;SDS011;43164;50.908;18.092;2023-07-20T09:50:01;3.80;;;0.90;;
57331;SDS011;43164;50.908;18.092;2023-07-20T09:52:58;3.90;;;0.90;;
57331;SDS011;43164;50.908;18.092;2023-07-20T09:55:38;2.90;;;0.90;;
57331;SDS011;43164;50.908;18.092;2023-07-20T09:58:41;3.90;;;0.80;;
57331;SDS011;43164;50.908;18.092;2023-07-20T10:01:20;3.00;;;1.10;;
57331;SDS011;43164;50.908;18.092;2023-07-20T10:03:56;3.70;;;1.00;;
57331;SDS011;43164;50.908;18.092;2023-07-20T10:06:33;3.00;;;0.80;;
57331;SDS011;43164;50.908;18.092;2023-07-20T10:09:08;3.40;;;0.90;;
57331;SDS011;43164;50.908;18.092;2023-07-20T10:11:49;4.80;;;1.30;;
57331;SDS011;43164;50.908;18.092;2023-07-20T10:14:27;2.20;;;0.70;;
57331;SDS011;43164;50.908;18.092;2023-07-20T10:17:04;5.60;;;1.10;;
57331;SDS011;43164;50.908;18.092;2023-07-20T10:19:51;3.90;;;1.20;;
57331;SDS011;43164;50.908;18.092;2023-07-20T10:22:36;3.10;;;0.80;;
57331;SDS011;43164;50.908;18.092;2023-07-20T10:25:07;4.60;;;1.10;;
57331;SDS011;43164;50.908;18.092;2023-07-20T10:28:10;3.30;;;1.10;;
57331;SDS011;43164;50.908;18.092;2023-07-20T10:30:57;4.30;;;1.50;;
57331;SDS011;43164;50.908;18.092;2023-07-20T10:33:30;5.20;;;1.50;;
57331;SDS011;43164;50.908;18.092;2023-07-20T10:36:07;3.80;;;1.20;;
57331;SDS011;43164;50.908;18.092;2023-07-20T10:41:18;5.30;;;1.40;;
57331;SDS011;43164;50.908;18.092;2023-07-20T10:43:50;5.70;;;1.60;;
57331;SDS011;43164;50.908;18.092;2023-07-20T10:49:11;4.20;;;1.50;;
57331;SDS011;43164;50.908;18.092;2023-07-20T10:51:42;7.20;;;1.50;;
57331;SDS011;43164;50.908;18.092;2023-07-20T10:56:48;4.30;;;1.60;;
57331;SDS011;43164;50.908;18.092;2023-07-20T10:59:35;7.00;;;2.00;;
57331;SDS011;43164;50.908;18.092;2023-07-20T11:02:06;4.20;;;1.60;;
57331;SDS011;43164;50.908;18.092;2023-07-20T11:04:42;3.80;;;1.40;;
57331;SDS011;43164;50.908;18.092;2023-07-20T11:07:11;3.70;;;1.10;;
57331;SDS011;43164;50.908;18.092;2023-07-20T11:09:46;5.60;;;1.20;;
57331;SDS011;43164;50.908;18.092;2023-07-20T11:12:16;2.90;;;0.90;;
57331;SDS011;43164;50.908;18.092;2023-07-20T11:15:04;1.90;;;0.80;;
57331;SDS011;43164;50.908;18.092;2023-07-20T11:17:37;2.70;;;0.70;;
57331;SDS011;43164;50.908;18.092;2023-07-20T11:20:06;2.30;;;0.70;;
57331;SDS011;43164;50.908;18.092;2023-07-20T11:22:35;4.20;;;0.80;;
57331;SDS011;43164;50.908;18.092;2023-07-20T11:25:04;2.90;;;0.60;;
57331;SDS011;43164;50.908;18.092;2023-07-20T11:27:33;2.40;;;0.60;;
57331;SDS011;43164;50.908;18.092;2023-07-20T11:30:20;2.80;;;0.60;;
57331;SDS011;43164;50.908;18.092;2023-07-20T11:32:49;2.20;;;0.70;;
57331;SDS011;43164;50.908;18.092;2023-07-20T11:35:18;3.10;;;0.50;;
57331;SDS011;43164;50.908;18.092;2023-07-20T11:37:57;2.70;;;0.40;;
57331;SDS011;43164;50.908;18.092;2023-07-20T11:40:26;2.70;;;0.60;;
57331;SDS011;43164;50.908;18.092;2023-07-20T11:42:53;1.40;;;0.40;;
57331;SDS011;43164;50.908;18.092;2023-07-20T11:45:22;2.90;;;0.60;;
57331;SDS011;43164;50.908;18.092;2023-07-20T11:47:51;2.50;;;0.60;;
57331;SDS011;43164;50.908;18.092;2023-07-20T11:50:21;1.90;;;0.60;;
57331;SDS011;43164;50.908;18.092;2023-07-20T11:52:53;1.10;;;0.40;;
57331;SDS011;43164;50.908;18.092;2023-07-20T11:55:22;1.30;;;0.40;;
57331;SDS011;43164;50.908;18.092;2023-07-20T11:58:04;2.30;;;0.50;;
57331;SDS011;43164;50.908;18.092;2023-07-20T12:00:35;2.60;;;0.50;;
57331;SDS011;43164;50.908;18.092;2023-07-20T12:03:09;1.50;;;0.40;;
57331;SDS011;43164;50.908;18.092;2023-07-20T12:05:43;1.70;;;0.50;;
57331;SDS011;43164;50.908;18.092;2023-07-20T12:11:13;1.80;;;0.50;;
57331;SDS011;43164;50.908;18.092;2023-07-20T12:13:57;1.70;;;0.50;;
57331;SDS011;43164;50.908;18.092;2023-07-20T12:16:52;3.30;;;0.50;;
57331;SDS011;43164;50.908;18.092;2023-07-20T12:19:24;2.10;;;0.50;;
57331;SDS011;43164;50.908;18.092;2023-07-20T12:21:57;3.20;;;0.50;;
57331;SDS011;43164;50.908;18.092;2023-07-20T12:28:16;1.80;;;0.50;;
57331;SDS011;43164;50.908;18.092;2023-07-20T12:30:49;3.10;;;0.40;;
57331;SDS011;43164;50.908;18.092;2023-07-20T12:33:35;1.40;;;0.50;;
57331;SDS011;43164;50.908;18.092;2023-07-20T12:36:11;2.80;;;0.60;;
57331;SDS011;43164;50.908;18.092;2023-07-20T12:38:47;2.50;;;0.50;;
57331;SDS011;43164;50.908;18.092;2023-07-20T12:41:21;3.20;;;0.50;;
57331;SDS011;43164;50.908;18.092;2023-07-20T12:43:51;1.30;;;0.40;;
57331;SDS011;43164;50.908;18.092;2023-07-20T12:46:43;2.50;;;0.50;;
57331;SDS011;43164;50.908;18.092;2023-07-20T12:49:13;2.60;;;0.40;;
57331;SDS011;43164;50.908;18.092;2023-07-20T12:51:47;2.30;;;0.40;;
57331;SDS011;43164;50.908;18.092;2023-07-20T12:54:16;2.60;;;0.50;;
57331;SDS011;43164;50.908;18.092;2023-07-20T12:56:53;1.70;;;0.50;;
57331;SDS011;43164;50.908;18.092;2023-07-20T12:59:21;1.60;;;0.50;;
57331;SDS011;43164;50.908;18.092;2023-07-20T13:01:51;2.20;;;0.50;;
57331;SDS011;43164;50.908;18.092;2023-07-20T13:04:20;1.40;;;0.40;;
57331;SDS011;43164;50.908;18.092;2023-07-20T13:06:49;1.40;;;0.50;;
57331;SDS011;43164;50.908;18.092;2023-07-20T13:09:18;2.30;;;0.50;;
57331;SDS011;43164;50.908;18.092;2023-07-20T13:11:50;1.90;;;0.60;;
57331;SDS011;43164;50.908;18.092;2023-07-20T13:14:20;1.50;;;0.50;;
57331;SDS011;43164;50.908;18.092;2023-07-20T13:16:57;2.90;;;0.60;;
57331;SDS011;43164;50.908;18.092;2023-07-20T13:19:27;3.60;;;0.50;;
57331;SDS011;43164;50.908;18.092;2023-07-20T13:21:56;1.20;;;0.40;;
57331;SDS011;43164;50.908;18.092;2023-07-20T13:24:24;2.30;;;0.40;;
57331;SDS011;43164;50.908;18.092;2023-07-20T13:26:52;3.30;;;0.50;;
57331;SDS011;43164;50.908;18.092;2023-07-20T13:29:20;2.90;;;0.50;;
57331;SDS011;43164;50.908;18.092;2023-07-20T13:31:52;3.30;;;0.40;;
57331;SDS011;43164;50.908;18.092;2023-07-20T13:34:28;0.90;;;0.40;;
57331;SDS011;43164;50.908;18.092;2023-07-20T13:36:56;2.40;;;0.60;;
57331;SDS011;43164;50.908;18.092;2023-07-20T13:39:25;2.00;;;0.40;;
57331;SDS011;43164;50.908;18.092;2023-07-20T13:41:54;1.50;;;0.50;;
57331;SDS011;43164;50.908;18.092;2023-07-20T13:44:22;1.60;;;0.50;;
57331;SDS011;43164;50.908;18.092;2023-07-20T13:46:51;1.10;;;0.30;;
57331;SDS011;43164;50.908;18.092;2023-07-20T13:49:20;1.00;;;0.30;;
57331;SDS011;43164;50.908;18.092;2023-07-20T13:51:51;3.40;;;0.50;;
57331;SDS011;43164;50.908;18.092;2023-07-20T13:54:28;2.80;;;0.50;;
57331;SDS011;43164;50.908;18.092;2023-07-20T13:56:58;1.60;;;0.40;;
57331;SDS011;43164;50.908;18.092;2023-07-20T13:59:35;2.80;;;0.40;;
57331;SDS011;43164;50.908;18.092;2023-07-20T14:02:03;1.50;;;0.50;;
57331;SDS011;43164;50.908;18.092;2023-07-20T14:04:32;1.40;;;0.50;;
57331;SDS011;43164;50.908;18.092;2023-07-20T14:07:00;1.70;;;0.50;;
57331;SDS011;43164;50.908;18.092;2023-07-20T14:09:30;2.40;;;0.60;;
57331;SDS011;43164;50.908;18.092;2023-07-20T14:11:57;1.60;;;0.50;;
57331;SDS011;43164;50.908;18.092;2023-07-20T14:14:26;1.30;;;0.50;;
57331;SDS011;43164;50.908;18.092;2023-07-20T14:16:53;1.90;;;0.40;;
57331;SDS011;43164;50.908;18.092;2023-07-20T14:19:23;1.10;;;0.50;;
57331;SDS011;43164;50.908;18.092;2023-07-20T14:21:51;1.20;;;0.40;;
57331;SDS011;43164;50.908;18.092;2023-07-20T14:24:29;1.60;;;0.50;;
57331;SDS011;43164;50.908;18.092;2023-07-20T14:26:57;0.90;;;0.40;;
57331;SDS011;43164;50.908;18.092;2023-07-20T14:29:28;0.80;;;0.40;;
57331;SDS011;43164;50.908;18.092;2023-07-20T14:31:59;1.30;;;0.40;;
57331;SDS011;43164;50.908;18.092;2023-07-20T14:34:35;1.20;;;0.30;;
57331;SDS011;43164;50.908;18.092;2023-07-20T14:37:30;1.00;;;0.40;;
57331;SDS011;43164;50.908;18.092;2023-07-20T14:39:59;1.00;;;0.30;;
57331;SDS011;43164;50.908;18.092;2023-07-20T14:42:28;1.50;;;0.40;;
57331;SDS011;43164;50.908;18.092;2023-07-20T14:44:59;1.70;;;0.40;;
57331;SDS011;43164;50.908;18.092;2023-07-20T14:47:44;1.80;;;0.40;;
57331;SDS011;43164;50.908;18.092;2023-07-20T14:50:17;0.80;;;0.40;;
57331;SDS011;43164;50.908;18.092;2023-07-20T14:52:51;0.60;;;0.40;;
57331;SDS011;43164;50.908;18.092;2023-07-20T14:55:20;1.80;;;0.50;;
57331;SDS011;43164;50.908;18.092;2023-07-20T14:57:49;1.10;;;0.50;;
57331;SDS011;43164;50.908;18.092;2023-07-20T15:00:23;0.80;;;0.40;;
57331;SDS011;43164;50.908;18.092;2023-07-20T15:02:57;1.20;;;0.50;;
57331;SDS011;43164;50.908;18.092;2023-07-20T15:05:27;1.40;;;0.40;;
57331;SDS011;43164;50.908;18.092;2023-07-20T15:07:55;2.20;;;0.50;;
57331;SDS011;43164;50.908;18.092;2023-07-20T15:10:27;2.20;;;0.50;;
57331;SDS011;43164;50.908;18.092;2023-07-20T15:13:09;1.50;;;0.70;;
57331;SDS011;43164;50.908;18.092;2023-07-20T15:15:43;1.90;;;0.50;;
57331;SDS011;43164;50.908;18.092;2023-07-20T15:18:11;2.10;;;0.60;;
57331;SDS011;43164;50.908;18.092;2023-07-20T15:20:44;1.60;;;0.50;;
57331;SDS011;43164;50.908;18.092;2023-07-20T15:23:16;1.50;;;0.50;;
57331;SDS011;43164;50.908;18.092;2023-07-20T15:25:50;1.00;;;0.50;;
57331;SDS011;43164;50.908;18.092;2023-07-20T15:28:19;1.90;;;0.60;;
57331;SDS011;43164;50.908;18.092;2023-07-20T15:30:47;1.90;;;0.60;;